This is the latest recevied weather packets stored in our database for station/object R2BLN-13. If no packets are shown the sender has not sent any weather packets the latest 10 day(s).
| Time | Temp. | Humidity | Pressure | Rain* | Wind** | Luminosity | Snow |
|---|---|---|---|---|---|---|---|
| 1787661707 | 18.33° C | 68% | 989.6 hPa | - | - | - | - |
| 1787661107 | 18.89° C | 68% | 989.5 hPa | - | - | - | - |
| 1787660507 | 18.89° C | 67% | 989.4 hPa | - | - | - | - |
| 1787659907 | 18.89° C | 67% | 989.5 hPa | - | - | - | - |
| 1787659300 | 18.89° C | 67% | 989.5 hPa | - | - | - | - |
| 1787658699 | 18.89° C | 67% | 989.5 hPa | - | - | - | - |
| 1787658077 | 18.89° C | 65% | 989.4 hPa | - | - | - | - |
| 1787657478 | 20° C | 65% | 989.2 hPa | - | - | - | - |
| 1787656877 | 19.44° C | 65% | 989.3 hPa | - | - | - | - |
| 1787656277 | 19.44° C | 66% | 989.4 hPa | - | - | - | - |
| 1787655677 | 18.33° C | 66% | 989.4 hPa | - | - | - | - |
| 1787655078 | 19.44° C | 64% | 989.3 hPa | - | - | - | - |
| 1787654477 | 19.44° C | 64% | 989.2 hPa | - | - | - | - |
| 1787653877 | 20° C | 64% | 989.1 hPa | - | - | - | - |
| 1787653277 | 20° C | 65% | 989.1 hPa | - | - | - | - |
| 1787652678 | 19.44° C | 65% | 989 hPa | - | - | - | - |
| 1787652077 | 20.56° C | 63% | 989 hPa | - | - | - | - |
| 1787651477 | 19.44° C | 65% | 989 hPa | - | - | - | - |
| 1787650877 | 19.44° C | 66% | 989 hPa | - | - | - | - |
| 1787649652 | 17.78° C | 69% | 989 hPa | - | - | - | - |
| 1787649052 | 17.22° C | 69% | 988.9 hPa | - | - | - | - |
| 1787648452 | 17.78° C | 69% | 988.9 hPa | - | - | - | - |
| 1787647849 | 17.78° C | 68% | 988.8 hPa | - | - | - | - |
| 1787647222 | 17.22° C | 69% | 988.8 hPa | - | - | - | - |
| 1787646622 | 17.22° C | 68% | 988.7 hPa | - | - | - | - |
* Rain since midnight (hover to see other rain measurements)
** Current wind speed in m/s (hover to see current wind gust speed)